sensor_id;sensor_type;location;lat;lon;timestamp;pressure;altitude;pressure_sealevel;temperature;humidity
8477;BME280;4275;42.854;23.222;2023-07-29T00:03:58;42167.94;;;-141.02;100.00
8477;BME280;4275;42.854;23.222;2023-07-29T00:06:31;42187.13;;;-141.02;100.00
8477;BME280;4275;42.854;23.222;2023-07-29T00:09:33;42112.28;;;-141.02;100.00
8477;BME280;4275;42.854;23.222;2023-07-29T00:12:59;42027.81;;;-141.02;100.00
8477;BME280;4275;42.854;23.222;2023-07-29T00:15:40;41951.06;;;-141.02;100.00
8477;BME280;4275;42.854;23.222;2023-07-29T00:18:17;41964.47;;;-141.02;100.00
8477;BME280;4275;42.854;23.222;2023-07-29T00:21:10;41880.03;;;-141.02;100.00
8477;BME280;4275;42.854;23.222;2023-07-29T00:23:51;41730.34;;;-141.02;100.00
8477;BME280;4275;42.854;23.222;2023-07-29T00:26:40;41632.47;;;-141.02;100.00
8477;BME280;4275;42.854;23.222;2023-07-29T00:29:07;41569.13;;;-141.02;100.00
8477;BME280;4275;42.854;23.222;2023-07-29T00:31:34;41530.75;;;-141.02;100.00
8477;BME280;4275;42.854;23.222;2023-07-29T00:34:01;41507.72;;;-141.02;100.00
8477;BME280;4275;42.854;23.222;2023-07-29T00:36:29;41446.31;;;-141.02;100.00
8477;BME280;4275;42.854;23.222;2023-07-29T00:38:56;41365.72;;;-141.02;100.00
8477;BME280;4275;42.854;23.222;2023-07-29T00:41:23;40655.81;;;-141.02;100.00
8477;BME280;4275;42.854;23.222;2023-07-29T00:43:51;41254.44;;;-141.02;100.00
8477;BME280;4275;42.854;23.222;2023-07-29T00:46:18;41135.47;;;-141.02;100.00
8477;BME280;4275;42.854;23.222;2023-07-29T00:48:46;41051.03;;;-141.02;100.00
8477;BME280;4275;42.854;23.222;2023-07-29T00:51:14;40955.09;;;-141.02;100.00
8477;BME280;4275;42.854;23.222;2023-07-29T00:53:42;40845.75;;;-141.02;100.00
8477;BME280;4275;42.854;23.222;2023-07-29T00:59:58;40724.88;;;-141.02;100.00
8477;BME280;4275;42.854;23.222;2023-07-29T01:03:14;40747.91;;;-141.02;100.00
8477;BME280;4275;42.854;23.222;2023-07-29T01:06:04;40767.09;;;-141.02;100.00
8477;BME280;4275;42.854;23.222;2023-07-29T01:08:42;40759.41;;;-141.02;100.00
8477;BME280;4275;42.854;23.222;2023-07-29T01:11:23;40740.22;;;-141.02;100.00
8477;BME280;4275;42.854;23.222;2023-07-29T01:17:40;40682.66;;;-141.02;100.00
8477;BME280;4275;42.854;23.222;2023-07-29T01:20:09;40698.00;;;-141.02;100.00
8477;BME280;4275;42.854;23.222;2023-07-29T01:22:38;40694.19;;;-141.02;100.00
8477;BME280;4275;42.854;23.222;2023-07-29T01:25:08;40675.00;;;-141.02;100.00
8477;BME280;4275;42.854;23.222;2023-07-29T01:27:35;40661.56;;;-141.02;100.00
8477;BME280;4275;42.854;23.222;2023-07-29T01:30:03;40669.25;;;-141.02;100.00
8477;BME280;4275;42.854;23.222;2023-07-29T01:32:37;40682.66;;;-141.02;100.00
8477;BME280;4275;42.854;23.222;2023-07-29T01:35:13;40688.44;;;-141.02;100.00
8477;BME280;4275;42.854;23.222;2023-07-29T01:37:42;40692.25;;;-141.02;100.00
8477;BME280;4275;42.854;23.222;2023-07-29T01:40:13;40644.28;;;-141.02;100.00
8477;BME280;4275;42.854;23.222;2023-07-29T01:42:40;40628.94;;;-141.02;100.00
8477;BME280;4275;42.854;23.222;2023-07-29T01:45:08;40640.47;;;-141.02;100.00
8477;BME280;4275;42.854;23.222;2023-07-29T01:47:36;40625.13;;;-141.02;100.00
8477;BME280;4275;42.854;23.222;2023-07-29T01:50:07;40567.56;;;-141.02;100.00
8477;BME280;4275;42.854;23.222;2023-07-29T01:52:34;40517.69;;;-141.02;100.00
8477;BME280;4275;42.854;23.222;2023-07-29T01:55:01;40475.47;;;-141.02;100.00
8477;BME280;4275;42.854;23.222;2023-07-29T01:57:30;40402.56;;;-141.02;100.00
8477;BME280;4275;42.854;23.222;2023-07-29T01:59:57;40325.84;;;-141.02;100.00
8477;BME280;4275;42.854;23.222;2023-07-29T02:02:23;40281.72;;;-141.02;100.00
8477;BME280;4275;42.854;23.222;2023-07-29T02:04:51;40233.75;;;-141.02;100.00
8477;BME280;4275;42.854;23.222;2023-07-29T02:07:18;40228.00;;;-141.02;100.00
8477;BME280;4275;42.854;23.222;2023-07-29T02:09:45;40199.22;;;-141.02;100.00
8477;BME280;4275;42.854;23.222;2023-07-29T02:12:12;40099.50;;;-141.02;100.00
8477;BME280;4275;42.854;23.222;2023-07-29T02:14:41;40076.47;;;-141.02;100.00
8477;BME280;4275;42.854;23.222;2023-07-29T02:17:08;39999.75;;;-141.02;100.00
8477;BME280;4275;42.854;23.222;2023-07-29T02:19:35;39980.56;;;-141.02;100.00
8477;BME280;4275;42.854;23.222;2023-07-29T02:22:02;39967.13;;;-141.02;100.00
8477;BME280;4275;42.854;23.222;2023-07-29T02:24:29;39919.19;;;-141.02;100.00
8477;BME280;4275;42.854;23.222;2023-07-29T02:26:56;39844.38;;;-141.02;100.00
8477;BME280;4275;42.854;23.222;2023-07-29T02:29:23;39736.97;;;-141.02;100.00
8477;BME280;4275;42.854;23.222;2023-07-29T02:31:52;39643.00;;;-141.02;100.00
8477;BME280;4275;42.854;23.222;2023-07-29T02:34:19;39577.78;;;-141.02;100.00
8477;BME280;4275;42.854;23.222;2023-07-29T02:36:46;39558.59;;;-141.02;100.00
8477;BME280;4275;42.854;23.222;2023-07-29T02:39:13;39495.31;;;-141.02;100.00
8477;BME280;4275;42.854;23.222;2023-07-29T02:41:40;39451.22;;;-141.02;100.00
8477;BME280;4275;42.854;23.222;2023-07-29T02:44:07;39378.31;;;-141.02;100.00
8477;BME280;4275;42.854;23.222;2023-07-29T02:46:34;39305.44;;;-141.02;100.00
8477;BME280;4275;42.854;23.222;2023-07-29T02:49:03;39290.13;;;-141.02;100.00
8477;BME280;4275;42.854;23.222;2023-07-29T02:51:30;39180.81;;;-141.02;100.00
8477;BME280;4275;42.854;23.222;2023-07-29T02:53:57;39130.94;;;-141.02;100.00
8477;BME280;4275;42.854;23.222;2023-07-29T02:56:24;39079.16;;;-141.02;100.00
8477;BME280;4275;42.854;23.222;2023-07-29T02:58:51;39129.03;;;-141.02;100.00
8477;BME280;4275;42.854;23.222;2023-07-29T03:01:18;39155.88;;;-141.02;100.00
8477;BME280;4275;42.854;23.222;2023-07-29T03:03:45;39190.38;;;-141.02;100.00
8477;BME280;4275;42.854;23.222;2023-07-29T03:06:14;39261.34;;;-141.02;100.00
8477;BME280;4275;42.854;23.222;2023-07-29T03:08:41;39339.97;;;-141.02;100.00
8477;BME280;4275;42.854;23.222;2023-07-29T03:11:09;39424.34;;;-141.02;100.00
8477;BME280;4275;42.854;23.222;2023-07-29T03:13:37;39539.44;;;-141.02;100.00
8477;BME280;4275;42.854;23.222;2023-07-29T03:16:05;39696.69;;;-141.02;100.00
8477;BME280;4275;42.854;23.222;2023-07-29T03:18:32;39650.66;;;-141.02;100.00
8477;BME280;4275;42.854;23.222;2023-07-29T03:20:59;39689.03;;;-141.02;100.00
8477;BME280;4275;42.854;23.222;2023-07-29T03:23:29;39735.06;;;-141.02;100.00
8477;BME280;4275;42.854;23.222;2023-07-29T03:25:56;39842.47;;;-141.02;100.00
8477;BME280;4275;42.854;23.222;2023-07-29T03:28:24;39777.25;;;-141.02;100.00
8477;BME280;4275;42.854;23.222;2023-07-29T03:37:42;39834.78;;;-141.02;100.00
8477;BME280;4275;42.854;23.222;2023-07-29T03:43:55;39898.09;;;-141.02;100.00
8477;BME280;4275;42.854;23.222;2023-07-29T03:46:57;40172.38;;;-141.02;100.00
8477;BME280;4275;42.854;23.222;2023-07-29T03:49:47;40502.34;;;-141.02;100.00
8477;BME280;4275;42.854;23.222;2023-07-29T03:56:01;40813.13;;;-141.02;100.00
8477;BME280;4275;42.854;23.222;2023-07-29T03:58:57;40958.94;;;-141.02;100.00
8477;BME280;4275;42.854;23.222;2023-07-29T04:05:15;41221.81;;;-141.02;99.66
8477;BME280;4275;42.854;23.222;2023-07-29T04:08:03;41319.69;;;-141.02;99.50
8477;BME280;4275;42.854;23.222;2023-07-29T04:17:11;41525.00;;;-141.02;93.14
8477;BME280;4275;42.854;23.222;2023-07-29T04:19:38;41615.19;;;-141.02;90.01
8477;BME280;4275;42.854;23.222;2023-07-29T04:22:05;41691.97;;;-141.02;86.58
8477;BME280;4275;42.854;23.222;2023-07-29T04:27:49;41901.16;;;-141.02;81.37
8477;BME280;4275;42.854;23.222;2023-07-29T04:30:16;42027.81;;;-141.02;77.97
8477;BME280;4275;42.854;23.222;2023-07-29T04:32:44;42194.81;;;-141.02;70.88
8477;BME280;4275;42.854;23.222;2023-07-29T04:41:36;42382.91;;;-141.02;75.33
8477;BME280;4275;42.854;23.222;2023-07-29T04:44:39;42379.06;;;-141.02;71.89
8477;BME280;4275;42.854;23.222;2023-07-29T04:50:30;42542.22;;;-141.02;68.53
8477;BME280;4275;42.854;23.222;2023-07-29T04:59:34;42661.25;;;-141.02;66.16
8477;BME280;4275;42.854;23.222;2023-07-29T05:02:01;42690.03;;;-141.02;68.77
8477;BME280;4275;42.854;23.222;2023-07-29T05:04:28;42716.91;;;-141.02;67.90
8477;BME280;4275;42.854;23.222;2023-07-29T05:06:56;42751.47;;;-141.02;67.98
8477;BME280;4275;42.854;23.222;2023-07-29T05:09:23;42747.63;;;-141.02;70.04
8477;BME280;4275;42.854;23.222;2023-07-29T05:11:51;42770.66;;;-141.02;69.45
8477;BME280;4275;42.854;23.222;2023-07-29T05:14:18;42763.00;;;-141.02;72.19
8477;BME280;4275;42.854;23.222;2023-07-29T05:16:45;42766.81;;;-141.02;74.11
8477;BME280;4275;42.854;23.222;2023-07-29T05:19:13;42759.16;;;-141.02;73.52
8477;BME280;4275;42.854;23.222;2023-07-29T05:21:40;42782.19;;;-141.02;73.54
8477;BME280;4275;42.854;23.222;2023-07-29T05:24:08;42759.16;;;-141.02;77.67
8477;BME280;4275;42.854;23.222;2023-07-29T05:26:36;42784.09;;;-141.02;78.05
8477;BME280;4275;42.854;23.222;2023-07-29T05:29:03;42782.19;;;-141.02;76.05
8477;BME280;4275;42.854;23.222;2023-07-29T05:31:30;42763.00;;;-141.02;75.99
8477;BME280;4275;42.854;23.222;2023-07-29T05:33:58;42805.22;;;-141.02;76.80
8477;BME280;4275;42.854;23.222;2023-07-29T05:36:25;42797.53;;;-141.02;77.55
8477;BME280;4275;42.854;23.222;2023-07-29T05:38:52;42818.66;;;-141.02;76.33
8477;BME280;4275;42.854;23.222;2023-07-29T05:41:21;42812.91;;;-141.02;76.32
8477;BME280;4275;42.854;23.222;2023-07-29T05:43:48;42793.69;;;-141.02;76.68
8477;BME280;4275;42.854;23.222;2023-07-29T05:46:15;42786.03;;;-141.02;76.91
8477;BME280;4275;42.854;23.222;2023-07-29T05:48:42;42793.69;;;-141.02;77.80
8477;BME280;4275;42.854;23.222;2023-07-29T05:51:09;42786.03;;;-141.02;78.85
8477;BME280;4275;42.854;23.222;2023-07-29T05:53:36;42786.03;;;-141.02;79.67
8477;BME280;4275;42.854;23.222;2023-07-29T05:56:03;42799.47;;;-141.02;78.69
8477;BME280;4275;42.854;23.222;2023-07-29T05:58:32;42768.75;;;-141.02;78.07
8477;BME280;4275;42.854;23.222;2023-07-29T06:00:59;42793.69;;;-141.02;78.84
8477;BME280;4275;42.854;23.222;2023-07-29T06:03:25;42768.75;;;-141.02;78.50
8477;BME280;4275;42.854;23.222;2023-07-29T06:05:53;42782.19;;;-141.02;78.56
8477;BME280;4275;42.854;23.222;2023-07-29T06:08:20;42759.16;;;-141.02;76.68
8477;BME280;4275;42.854;23.222;2023-07-29T06:10:47;42809.06;;;-141.02;75.11
8477;BME280;4275;42.854;23.222;2023-07-29T06:13:14;42782.19;;;-141.02;75.69
8477;BME280;4275;42.854;23.222;2023-07-29T06:15:43;42782.19;;;-141.02;74.80
8477;BME280;4275;42.854;23.222;2023-07-29T06:18:10;42805.22;;;-141.02;75.09
8477;BME280;4275;42.854;23.222;2023-07-29T06:20:37;42797.53;;;-141.02;76.57
8477;BME280;4275;42.854;23.222;2023-07-29T06:23:04;42812.91;;;-141.02;75.50
8477;BME280;4275;42.854;23.222;2023-07-29T06:25:31;42809.06;;;-141.02;75.26
8477;BME280;4275;42.854;23.222;2023-07-29T06:27:58;42793.69;;;-141.02;76.89
8477;BME280;4275;42.854;23.222;2023-07-29T06:30:25;42801.38;;;-141.02;74.65
8477;BME280;4275;42.854;23.222;2023-07-29T06:32:53;42778.34;;;-141.02;74.61
8477;BME280;4275;42.854;23.222;2023-07-29T06:35:20;42782.19;;;-141.02;75.31
8477;BME280;4275;42.854;23.222;2023-07-29T06:37:48;42782.19;;;-141.02;73.72
8477;BME280;4275;42.854;23.222;2023-07-29T06:40:15;42789.88;;;-141.02;74.80
8477;BME280;4275;42.854;23.222;2023-07-29T06:42:42;42801.38;;;-141.02;72.90
8477;BME280;4275;42.854;23.222;2023-07-29T06:45:09;42789.88;;;-141.02;72.36
8477;BME280;4275;42.854;23.222;2023-07-29T06:47:37;42801.38;;;-141.02;73.67
8477;BME280;4275;42.854;23.222;2023-07-29T06:50:06;42801.38;;;-141.02;71.47
8477;BME280;4275;42.854;23.222;2023-07-29T06:52:33;42801.38;;;-141.02;70.39
8477;BME280;4275;42.854;23.222;2023-07-29T06:54:59;42812.91;;;-141.02;71.37
8477;BME280;4275;42.854;23.222;2023-07-29T06:57:27;42797.53;;;-141.02;71.59
8477;BME280;4275;42.854;23.222;2023-07-29T06:59:54;42835.94;;;-141.02;70.63
8477;BME280;4275;42.854;23.222;2023-07-29T07:02:21;42835.94;;;-141.02;70.37
8477;BME280;4275;42.854;23.222;2023-07-29T07:04:47;42826.34;;;-141.02;68.68
8477;BME280;4275;42.854;23.222;2023-07-29T07:07:16;42835.94;;;-141.02;66.94
8477;BME280;4275;42.854;23.222;2023-07-29T07:09:43;42860.91;;;-141.02;65.99
8477;BME280;4275;42.854;23.222;2023-07-29T07:12:10;42849.38;;;-141.02;65.87
8477;BME280;4275;42.854;23.222;2023-07-29T07:14:37;42874.34;;;-141.02;65.09
8477;BME280;4275;42.854;23.222;2023-07-29T07:17:05;42893.53;;;-141.02;66.32
8477;BME280;4275;42.854;23.222;2023-07-29T07:19:32;42908.88;;;-141.02;64.93
8477;BME280;4275;42.854;23.222;2023-07-29T07:21:59;42922.31;;;-141.02;63.71
8477;BME280;4275;42.854;23.222;2023-07-29T07:24:27;42978.00;;;-141.02;63.88
8477;BME280;4275;42.854;23.222;2023-07-29T07:26:54;42993.34;;;-141.02;62.76
8477;BME280;4275;42.854;23.222;2023-07-29T07:29:21;42976.09;;;-141.02;62.97
8477;BME280;4275;42.854;23.222;2023-07-29T07:31:50;43008.72;;;-141.02;61.23
8477;BME280;4275;42.854;23.222;2023-07-29T07:34:18;43058.63;;;-141.02;62.06
8477;BME280;4275;42.854;23.222;2023-07-29T07:36:46;43104.72;;;-141.02;62.02
8477;BME280;4275;42.854;23.222;2023-07-29T07:39:13;43081.66;;;-141.02;61.26
8477;BME280;4275;42.854;23.222;2023-07-29T07:41:42;43112.41;;;-141.02;61.99
8477;BME280;4275;42.854;23.222;2023-07-29T07:44:09;43129.66;;;-141.02;62.22
8477;BME280;4275;42.854;23.222;2023-07-29T07:46:36;43137.34;;;-141.02;60.42
8477;BME280;4275;42.854;23.222;2023-07-29T07:49:03;43170.00;;;-141.02;60.45
8477;BME280;4275;42.854;23.222;2023-07-29T07:51:30;43162.31;;;-141.02;61.11
8477;BME280;4275;42.854;23.222;2023-07-29T07:53:57;43154.63;;;-141.02;60.38
8477;BME280;4275;42.854;23.222;2023-07-29T07:56:24;43219.91;;;-141.02;59.10
8477;BME280;4275;42.854;23.222;2023-07-29T07:58:53;43246.78;;;-141.02;60.07
8477;BME280;4275;42.854;23.222;2023-07-29T08:01:20;43258.31;;;-141.02;58.73
8477;BME280;4275;42.854;23.222;2023-07-29T08:03:47;43258.31;;;-141.02;58.65
8477;BME280;4275;42.854;23.222;2023-07-29T08:06:14;43260.22;;;-141.02;58.65
8477;BME280;4275;42.854;23.222;2023-07-29T08:08:44;43267.91;;;-141.02;59.54
8477;BME280;4275;42.854;23.222;2023-07-29T08:11:11;43287.09;;;-141.02;58.62
8477;BME280;4275;42.854;23.222;2023-07-29T08:13:38;43289.03;;;-141.02;57.81
8477;BME280;4275;42.854;23.222;2023-07-29T08:16:06;43308.22;;;-141.02;56.72
8477;BME280;4275;42.854;23.222;2023-07-29T08:18:33;43338.94;;;-141.02;58.17
8477;BME280;4275;42.854;23.222;2023-07-29T08:21:01;43331.28;;;-141.02;58.36
8477;BME280;4275;42.854;23.222;2023-07-29T08:23:29;43329.34;;;-141.02;59.29
8477;BME280;4275;42.854;23.222;2023-07-29T08:25:58;43325.50;;;-141.02;58.91
8477;BME280;4275;42.854;23.222;2023-07-29T08:28:27;43365.81;;;-141.02;58.20
8477;BME280;4275;42.854;23.222;2023-07-29T08:30:54;43381.19;;;-141.02;58.30
8477;BME280;4275;42.854;23.222;2023-07-29T08:33:23;43417.66;;;-141.02;57.58
8477;BME280;4275;42.854;23.222;2023-07-29T08:35:50;43410.00;;;-141.02;57.24
8477;BME280;4275;42.854;23.222;2023-07-29T08:38:17;43408.06;;;-141.02;56.72
8477;BME280;4275;42.854;23.222;2023-07-29T08:40:46;43408.06;;;-141.02;55.94
8477;BME280;4275;42.854;23.222;2023-07-29T08:43:19;43433.03;;;-141.02;55.78
8477;BME280;4275;42.854;23.222;2023-07-29T08:45:46;43461.84;;;-141.02;56.36
8477;BME280;4275;42.854;23.222;2023-07-29T08:48:15;43427.28;;;-141.02;55.75
8477;BME280;4275;42.854;23.222;2023-07-29T08:50:48;43450.31;;;-141.02;56.58
8477;BME280;4275;42.854;23.222;2023-07-29T08:53:17;43475.28;;;-141.02;55.28
8477;BME280;4275;42.854;23.222;2023-07-29T08:55:44;43450.31;;;-141.02;55.29
8477;BME280;4275;42.854;23.222;2023-07-29T08:58:11;43498.31;;;-141.02;54.93
8477;BME280;4275;42.854;23.222;2023-07-29T09:00:39;43481.03;;;-141.02;55.05
8477;BME280;4275;42.854;23.222;2023-07-29T09:03:06;43552.09;;;-141.02;54.97
8477;BME280;4275;42.854;23.222;2023-07-29T09:05:33;43607.75;;;-141.02;54.96
8477;BME280;4275;42.854;23.222;2023-07-29T09:08:02;43623.13;;;-141.02;54.79
8477;BME280;4275;42.854;23.222;2023-07-29T09:10:35;43588.56;;;-141.02;54.36
8477;BME280;4275;42.854;23.222;2023-07-29T09:13:03;43609.69;;;-141.02;54.96
8477;BME280;4275;42.854;23.222;2023-07-29T09:15:31;43659.59;;;-141.02;53.81
8477;BME280;4275;42.854;23.222;2023-07-29T09:17:59;43584.72;;;-141.02;54.65
8477;BME280;4275;42.854;23.222;2023-07-29T09:20:26;43611.59;;;-141.02;55.01
8477;BME280;4275;42.854;23.222;2023-07-29T09:22:54;43615.44;;;-141.02;54.94
8477;BME280;4275;42.854;23.222;2023-07-29T09:25:28;43636.56;;;-141.02;54.31
8477;BME280;4275;42.854;23.222;2023-07-29T09:27:59;43707.63;;;-141.02;53.25
8477;BME280;4275;42.854;23.222;2023-07-29T09:30:26;43688.41;;;-141.02;52.44
8477;BME280;4275;42.854;23.222;2023-07-29T09:32:55;43696.09;;;-141.02;54.17
8477;BME280;4275;42.854;23.222;2023-07-29T09:35:23;43726.81;;;-141.02;53.48
8477;BME280;4275;42.854;23.222;2023-07-29T09:37:50;43724.91;;;-141.02;53.49
8477;BME280;4275;42.854;23.222;2023-07-29T09:40:18;43699.94;;;-141.02;52.95
8477;BME280;4275;42.854;23.222;2023-07-29T09:42:50;43742.19;;;-141.02;53.16
8477;BME280;4275;42.854;23.222;2023-07-29T09:45:21;43832.44;;;-141.02;52.04
8477;BME280;4275;42.854;23.222;2023-07-29T09:47:49;43865.09;;;-141.02;51.90
8477;BME280;4275;42.854;23.222;2023-07-29T09:50:16;43909.25;;;-141.02;52.69
8477;BME280;4275;42.854;23.222;2023-07-29T09:52:44;43915.00;;;-141.02;52.18
8477;BME280;4275;42.854;23.222;2023-07-29T09:55:12;43949.56;;;-141.02;51.47
8477;BME280;4275;42.854;23.222;2023-07-29T09:57:39;43957.25;;;-141.02;50.93
8477;BME280;4275;42.854;23.222;2023-07-29T10:00:11;43895.81;;;-141.02;51.25
8477;BME280;4275;42.854;23.222;2023-07-29T10:02:39;43870.84;;;-141.02;51.60
8477;BME280;4275;42.854;23.222;2023-07-29T10:05:07;43719.13;;;-141.02;52.28
8477;BME280;4275;42.854;23.222;2023-07-29T10:07:35;43865.09;;;-141.02;51.81
8477;BME280;4275;42.854;23.222;2023-07-29T10:10:04;43895.81;;;-141.02;51.83
8477;BME280;4275;42.854;23.222;2023-07-29T10:12:33;43934.22;;;-141.02;50.88
8477;BME280;4275;42.854;23.222;2023-07-29T10:15:02;44003.34;;;-141.02;51.40
8477;BME280;4275;42.854;23.222;2023-07-29T10:17:34;44014.88;;;-141.02;51.59
8477;BME280;4275;42.854;23.222;2023-07-29T10:20:03;44045.59;;;-141.02;50.38
8477;BME280;4275;42.854;23.222;2023-07-29T10:22:35;43989.91;;;-141.02;50.51
8477;BME280;4275;42.854;23.222;2023-07-29T10:25:04;43980.31;;;-141.02;50.27
8477;BME280;4275;42.854;23.222;2023-07-29T10:27:40;44037.91;;;-141.02;51.00
8477;BME280;4275;42.854;23.222;2023-07-29T10:30:10;44068.63;;;-141.02;51.02
8477;BME280;4275;42.854;23.222;2023-07-29T10:32:42;43926.53;;;-141.02;50.24
8477;BME280;4275;42.854;23.222;2023-07-29T10:35:09;43932.28;;;-141.02;51.32
8477;BME280;4275;42.854;23.222;2023-07-29T10:37:37;44012.94;;;-141.02;51.34
8477;BME280;4275;42.854;23.222;2023-07-29T10:40:07;43972.63;;;-141.02;51.66
8477;BME280;4275;42.854;23.222;2023-07-29T10:42:35;43945.72;;;-141.02;52.33
8477;BME280;4275;42.854;23.222;2023-07-29T10:45:18;43984.16;;;-141.02;51.46
8477;BME280;4275;42.854;23.222;2023-07-29T10:47:47;44034.06;;;-141.02;50.18
8477;BME280;4275;42.854;23.222;2023-07-29T10:50:18;44057.13;;;-141.02;50.41
8477;BME280;4275;42.854;23.222;2023-07-29T10:52:49;44082.09;;;-141.02;49.51
8477;BME280;4275;42.854;23.222;2023-07-29T10:55:25;44064.81;;;-141.02;50.27
8477;BME280;4275;42.854;23.222;2023-07-29T10:58:04;44153.16;;;-141.02;49.17
8477;BME280;4275;42.854;23.222;2023-07-29T11:00:32;44149.31;;;-141.02;49.79
8477;BME280;4275;42.854;23.222;2023-07-29T11:03:02;44183.88;;;-141.02;49.27
8477;BME280;4275;42.854;23.222;2023-07-29T11:05:43;44222.28;;;-141.02;48.99
8477;BME280;4275;42.854;23.222;2023-07-29T11:08:25;44137.78;;;-141.02;49.58
8477;BME280;4275;42.854;23.222;2023-07-29T11:11:05;44130.09;;;-141.02;49.57
8477;BME280;4275;42.854;23.222;2023-07-29T11:13:34;44172.34;;;-141.02;48.62
8477;BME280;4275;42.854;23.222;2023-07-29T11:16:01;44149.31;;;-141.02;49.63
8477;BME280;4275;42.854;23.222;2023-07-29T11:18:31;44172.34;;;-141.02;48.70
8477;BME280;4275;42.854;23.222;2023-07-29T11:20:59;44153.16;;;-141.02;49.63
8477;BME280;4275;42.854;23.222;2023-07-29T11:23:31;44279.91;;;-141.02;49.25
8477;BME280;4275;42.854;23.222;2023-07-29T11:25:58;44229.97;;;-141.02;48.29
8477;BME280;4275;42.854;23.222;2023-07-29T11:28:26;44103.22;;;-141.02;48.67
8477;BME280;4275;42.854;23.222;2023-07-29T11:30:54;44251.09;;;-141.02;48.63
8477;BME280;4275;42.854;23.222;2023-07-29T11:33:23;44425.88;;;-141.02;48.63
8477;BME280;4275;42.854;23.222;2023-07-29T11:35:52;44429.72;;;-141.02;48.01
8477;BME280;4275;42.854;23.222;2023-07-29T11:38:20;44383.59;;;-141.02;48.42
8477;BME280;4275;42.854;23.222;2023-07-29T11:40:55;44395.13;;;-141.02;48.19
8477;BME280;4275;42.854;23.222;2023-07-29T11:43:22;44302.94;;;-141.02;48.56
8477;BME280;4275;42.854;23.222;2023-07-29T11:45:49;44395.13;;;-141.02;48.43
8477;BME280;4275;42.854;23.222;2023-07-29T11:48:17;44410.50;;;-141.02;48.13
8477;BME280;4275;42.854;23.222;2023-07-29T11:50:45;44427.78;;;-141.02;46.94
8477;BME280;4275;42.854;23.222;2023-07-29T11:53:14;44418.19;;;-141.02;47.63
8477;BME280;4275;42.854;23.222;2023-07-29T11:55:41;44379.78;;;-141.02;48.06
8477;BME280;4275;42.854;23.222;2023-07-29T11:58:08;44377.84;;;-141.02;47.60
8477;BME280;4275;42.854;23.222;2023-07-29T12:00:35;44372.09;;;-141.02;47.88
8477;BME280;4275;42.854;23.222;2023-07-29T12:03:04;44398.97;;;-141.02;47.46
8477;BME280;4275;42.854;23.222;2023-07-29T12:05:32;44493.09;;;-141.02;47.40
8477;BME280;4275;42.854;23.222;2023-07-29T12:07:59;44541.09;;;-141.02;47.02
8477;BME280;4275;42.854;23.222;2023-07-29T12:10:27;44535.34;;;-141.02;46.46
8477;BME280;4275;42.854;23.222;2023-07-29T12:12:55;44581.44;;;-141.02;47.26
8477;BME280;4275;42.854;23.222;2023-07-29T12:15:25;44625.63;;;-141.02;46.16
8477;BME280;4275;42.854;23.222;2023-07-29T12:17:54;44644.81;;;-141.02;46.64
8477;BME280;4275;42.854;23.222;2023-07-29T12:20:23;44698.59;;;-141.02;46.15
8477;BME280;4275;42.854;23.222;2023-07-29T12:22:54;44656.34;;;-141.02;46.03
8477;BME280;4275;42.854;23.222;2023-07-29T12:25:21;44598.72;;;-141.02;46.34
8477;BME280;4275;42.854;23.222;2023-07-29T12:27:50;44767.75;;;-141.02;46.17
8477;BME280;4275;42.854;23.222;2023-07-29T12:30:20;44894.53;;;-141.02;45.14
8477;BME280;4275;42.854;23.222;2023-07-29T12:32:47;44829.22;;;-141.02;45.79
8477;BME280;4275;42.854;23.222;2023-07-29T12:35:15;44694.75;;;-141.02;46.12
8477;BME280;4275;42.854;23.222;2023-07-29T12:37:42;44560.31;;;-141.02;46.90
8477;BME280;4275;42.854;23.222;2023-07-29T12:40:21;44487.31;;;-141.02;48.26
8477;BME280;4275;42.854;23.222;2023-07-29T12:42:50;44737.03;;;-141.02;47.46
8477;BME280;4275;42.854;23.222;2023-07-29T12:45:18;44781.22;;;-141.02;47.48
8477;BME280;4275;42.854;23.222;2023-07-29T12:47:45;44729.34;;;-141.02;46.97
8477;BME280;4275;42.854;23.222;2023-07-29T12:50:12;44548.78;;;-141.02;48.16
8477;BME280;4275;42.854;23.222;2023-07-29T12:52:39;44541.09;;;-141.02;48.96
8477;BME280;4275;42.854;23.222;2023-07-29T12:55:06;44518.06;;;-141.02;48.64
8477;BME280;4275;42.854;23.222;2023-07-29T12:57:39;44496.94;;;-141.02;48.98
8477;BME280;4275;42.854;23.222;2023-07-29T13:00:10;44710.13;;;-141.02;49.42
8477;BME280;4275;42.854;23.222;2023-07-29T13:02:37;44664.03;;;-141.02;49.42
8477;BME280;4275;42.854;23.222;2023-07-29T13:05:05;44552.63;;;-141.02;50.01
8477;BME280;4275;42.854;23.222;2023-07-29T13:07:32;44437.38;;;-141.02;51.20
8477;BME280;4275;42.854;23.222;2023-07-29T13:10:00;44398.97;;;-141.02;52.54
8477;BME280;4275;42.854;23.222;2023-07-29T13:12:27;44656.34;;;-141.02;52.52
8477;BME280;4275;42.854;23.222;2023-07-29T13:14:54;44483.47;;;-141.02;51.19
8477;BME280;4275;42.854;23.222;2023-07-29T13:17:22;44471.97;;;-141.02;50.94
8477;BME280;4275;42.854;23.222;2023-07-29T13:19:50;44356.72;;;-141.02;51.36
8477;BME280;4275;42.854;23.222;2023-07-29T13:22:17;44648.66;;;-141.02;51.79
8477;BME280;4275;42.854;23.222;2023-07-29T13:24:44;44675.56;;;-141.02;52.14
8477;BME280;4275;42.854;23.222;2023-07-29T13:27:11;44744.72;;;-141.02;50.93
8477;BME280;4275;42.854;23.222;2023-07-29T13:29:39;44706.28;;;-141.02;50.82
8477;BME280;4275;42.854;23.222;2023-07-29T13:32:07;44291.41;;;-141.02;52.34
8477;BME280;4275;42.854;23.222;2023-07-29T13:34:36;44602.56;;;-141.02;51.92
8477;BME280;4275;42.854;23.222;2023-07-29T13:37:05;44583.38;;;-141.02;52.41
8477;BME280;4275;42.854;23.222;2023-07-29T13:39:32;44285.66;;;-141.02;53.16
8477;BME280;4275;42.854;23.222;2023-07-29T13:41:59;44402.81;;;-141.02;54.15
8477;BME280;4275;42.854;23.222;2023-07-29T13:44:26;44548.78;;;-141.02;53.75
8477;BME280;4275;42.854;23.222;2023-07-29T13:46:53;44468.13;;;-141.02;53.23
8477;BME280;4275;42.854;23.222;2023-07-29T13:49:20;44571.84;;;-141.02;53.34
8477;BME280;4275;42.854;23.222;2023-07-29T13:51:49;44541.09;;;-141.02;53.97
8477;BME280;4275;42.854;23.222;2023-07-29T13:54:16;44564.16;;;-141.02;53.12